Terminal Aerodrome Forecast
Issued by NWS

Home | Current Version | Previous Version | Text Only | Print | Product List | Glossary Off
Versions: 1 2 3 4 5 6 7 8 9 10 11 12 13

140
FTUS43 KGRB 182339
TAFAUW
TAF
KAUW 182339Z 1900/1924 29008KT P6SM SCT250
     FM190600 32004KT 6SM BR SCT200
     FM190900 VRB03KT 4SM BR SCT150
     FM191400 13003KT P6SM SCT200
     FM192300 12005KT 6SM BR BKN150=

USA.gov is the U.S. government's official web portal to all federal, state and local government web resources and services.